createdAt,value
2019-05-07T00:00:53.174Z,57.50
2019-05-07T00:03:22.090Z,57.90
2019-05-07T00:05:53.728Z,58.10
2019-05-07T00:08:22.802Z,57.90
2019-05-07T00:10:52.897Z,57.70
2019-05-07T00:13:44.095Z,57.40
2019-05-07T00:16:12.712Z,57.50
2019-05-07T00:18:42.742Z,57.60
2019-05-07T00:21:12.609Z,57.50
2019-05-07T00:23:43.037Z,57.40
2019-05-07T00:26:13.118Z,57.30
2019-05-07T00:28:43.187Z,56.90
2019-05-07T00:31:12.377Z,57.10
2019-05-07T00:33:43.035Z,56.70
2019-05-07T00:36:29.108Z,56.40
2019-05-07T00:39:08.163Z,56.60
2019-05-07T00:41:42.681Z,56.60
2019-05-07T00:44:13.558Z,57.40
2019-05-07T00:46:42.727Z,56.80
2019-05-07T00:49:12.661Z,56.90
2019-05-07T00:51:42.429Z,57.10
2019-05-07T00:54:12.322Z,57.10
2019-05-07T00:56:42.892Z,57.30
2019-05-07T00:59:13.084Z,57.40
2019-05-07T01:01:43.258Z,58.00
2019-05-07T01:04:12.059Z,58.40
2019-05-07T01:06:42.393Z,58.80
2019-05-07T01:09:12.303Z,58.80
2019-05-07T01:11:42.934Z,59.10
2019-05-07T01:14:32.323Z,59.30
2019-05-07T01:17:02.419Z,59.50
2019-05-07T01:19:32.715Z,59.50
2019-05-07T01:22:03.009Z,59.60
2019-05-07T01:24:32.228Z,59.60
2019-05-07T01:27:02.182Z,60.30
2019-05-07T01:29:32.824Z,60.80
2019-05-07T01:32:05.452Z,61.30
2019-05-07T01:34:35.536Z,61.80
2019-05-07T01:37:03.941Z,62.10
2019-05-07T01:39:32.746Z,62.90
2019-05-07T01:42:02.159Z,62.70
2019-05-07T01:44:32.550Z,63.30
2019-05-07T01:47:02.535Z,63.50
2019-05-07T01:49:33.087Z,63.10
2019-05-07T01:52:02.465Z,63.70
2019-05-07T01:54:33.226Z,64.00
2019-05-07T01:57:02.920Z,64.30
2019-05-07T01:59:32.123Z,64.70
2019-05-07T02:02:02.995Z,65.00
2019-05-07T02:04:38.772Z,65.40
2019-05-07T02:07:23.642Z,65.70
2019-05-07T02:09:53.739Z,65.80
2019-05-07T02:12:23.772Z,66.10
2019-05-07T02:14:53.118Z,66.10
2019-05-07T02:17:22.855Z,66.10
2019-05-07T02:19:52.745Z,66.00
2019-05-07T02:22:22.691Z,66.20
2019-05-07T02:24:52.306Z,66.00
2019-05-07T02:27:22.089Z,65.90
2019-05-07T02:29:52.841Z,66.30
2019-05-07T02:32:23.694Z,66.20
2019-05-07T02:34:54.202Z,66.20
2019-05-07T02:37:26.224Z,66.30
2019-05-07T02:40:00.183Z,66.20
2019-05-07T02:42:29.167Z,66.20
2019-05-07T02:44:59.216Z,66.10
2019-05-07T02:47:29.424Z,66.10
2019-05-07T02:50:02.810Z,66.10
2019-05-07T02:52:47.848Z,66.50
2019-05-07T02:55:17.974Z,66.80
2019-05-07T02:57:46.401Z,66.80
2019-05-07T03:00:19.308Z,66.40
2019-05-07T03:02:46.571Z,66.70
2019-05-07T03:05:14.993Z,66.40
2019-05-07T03:07:43.488Z,66.20
2019-05-07T03:10:13.836Z,65.60
2019-05-07T03:12:42.969Z,65.50
2019-05-07T03:15:13.249Z,65.50
2019-05-07T03:17:42.971Z,65.70
2019-05-07T03:20:13.988Z,65.70
2019-05-07T03:22:42.986Z,65.70
2019-05-07T03:25:16.233Z,65.80
2019-05-07T03:27:44.657Z,65.60
2019-05-07T03:30:17.059Z,65.90
2019-05-07T03:32:48.175Z,65.80
2019-05-07T03:35:27.531Z,65.60
2019-05-07T03:37:54.966Z,65.80
2019-05-07T03:40:23.429Z,65.90
2019-05-07T03:42:53.497Z,65.70
2019-05-07T03:45:29.693Z,65.60
2019-05-07T03:48:05.683Z,65.40
2019-05-07T03:50:34.098Z,65.50
2019-05-07T03:53:02.986Z,65.30
2019-05-07T03:55:33.194Z,65.20
2019-05-07T03:58:03.181Z,65.20
2019-05-07T04:00:33.338Z,65.10
2019-05-07T04:03:03.676Z,65.50
2019-05-07T04:05:34.242Z,65.60
2019-05-07T04:08:03.303Z,65.40
2019-05-07T04:10:33.854Z,65.10
2019-05-07T04:13:04.527Z,65.10
2019-05-07T04:15:33.164Z,65.70
2019-05-07T04:18:03.580Z,65.70
2019-05-07T04:20:33.296Z,64.90
2019-05-07T04:23:04.219Z,65.50
2019-05-07T04:25:36.468Z,65.80
2019-05-07T04:28:23.655Z,65.70
2019-05-07T04:30:53.381Z,65.90
2019-05-07T04:33:23.878Z,65.90
2019-05-07T04:36:13.852Z,65.80
2019-05-07T04:38:43.735Z,65.10
2019-05-07T04:41:13.587Z,65.60
2019-05-07T04:43:43.482Z,66.80
2019-05-07T04:46:14.374Z,66.30
2019-05-07T04:48:43.825Z,66.20
2019-05-07T04:51:13.566Z,65.70
2019-05-07T04:53:42.883Z,64.90
2019-05-07T04:56:14.079Z,65.00
2019-05-07T04:58:43.349Z,65.10
2019-05-07T05:01:14.087Z,65.20
2019-05-07T05:03:43.695Z,64.60
2019-05-07T05:06:13.737Z,64.00
2019-05-07T05:08:43.487Z,63.20
2019-05-07T05:11:12.881Z,62.30
2019-05-07T05:13:44.462Z,62.30
2019-05-07T05:16:13.484Z,61.80
2019-05-07T05:18:42.054Z,60.40
2019-05-07T05:21:12.235Z,60.30
2019-05-07T05:23:42.348Z,59.50
2019-05-07T05:26:12.537Z,59.40
2019-05-07T05:28:41.897Z,58.40
2019-05-07T05:31:12.516Z,56.90
2019-05-07T05:33:41.997Z,56.30
2019-05-07T05:36:12.702Z,55.50
2019-05-07T05:38:42.339Z,55.60
2019-05-07T05:41:12.292Z,55.00
2019-05-07T05:43:58.509Z,52.70
2019-05-07T05:46:28.698Z,52.10
2019-05-07T05:48:57.128Z,50.50
2019-05-07T05:51:33.124Z,48.80
2019-05-07T05:54:05.906Z,46.40
2019-05-07T05:56:52.376Z,43.80
2019-05-07T05:59:27.870Z,43.20
2019-05-07T06:02:12.230Z,43.00
2019-05-07T06:04:48.299Z,40.80
2019-05-07T06:07:36.685Z,40.60
2019-05-07T06:10:08.750Z,38.60
2019-05-07T06:12:42.820Z,37.70
2019-05-07T06:15:28.269Z,38.00
2019-05-07T06:17:58.338Z,36.20
2019-05-07T06:20:42.835Z,35.10
2019-05-07T06:23:32.965Z,35.10
2019-05-07T06:26:05.163Z,34.90
2019-05-07T06:28:32.986Z,33.70
2019-05-07T06:31:02.210Z,33.80
2019-05-07T06:33:32.399Z,33.40
2019-05-07T06:36:02.864Z,33.10
2019-05-07T06:38:32.842Z,33.20
2019-05-07T06:41:19.951Z,32.90
2019-05-07T06:43:52.126Z,33.20
2019-05-07T06:46:23.052Z,33.10
2019-05-07T06:48:52.690Z,32.10
2019-05-07T06:51:22.109Z,31.40
2019-05-07T06:53:51.864Z,30.30
2019-05-07T06:56:20.428Z,30.60
2019-05-07T06:58:52.467Z,30.30
2019-05-07T07:01:28.354Z,29.10
2019-05-07T07:04:07.577Z,28.60
2019-05-07T07:06:49.640Z,27.70
2019-05-07T07:09:32.894Z,28.10
2019-05-07T07:12:05.799Z,28.60
2019-05-07T07:14:34.279Z,27.90
2019-05-07T07:17:02.975Z,27.90
2019-05-07T07:19:32.521Z,28.20
2019-05-07T07:22:02.346Z,27.80
2019-05-07T07:24:32.929Z,27.00
2019-05-07T07:27:02.415Z,27.40
2019-05-07T07:29:32.590Z,27.10
2019-05-07T07:32:05.601Z,26.50
2019-05-07T07:34:35.665Z,26.30
2019-05-07T07:37:09.823Z,25.70
2019-05-07T07:39:35.974Z,25.40
2019-05-07T07:42:06.162Z,25.60
2019-05-07T07:44:34.734Z,25.30
2019-05-07T07:47:03.205Z,25.40
2019-05-07T07:49:32.829Z,24.70
2019-05-07T07:52:03.170Z,24.30
2019-05-07T07:54:32.245Z,24.40
2019-05-07T07:57:08.496Z,24.00
2019-05-07T07:59:38.689Z,24.30
2019-05-07T08:02:08.829Z,24.40
2019-05-07T08:04:37.246Z,24.30
2019-05-07T08:07:05.750Z,23.70
2019-05-07T08:09:34.803Z,23.50
2019-05-07T08:12:05.369Z,23.90
2019-05-07T08:14:33.989Z,23.80
2019-05-07T08:17:04.118Z,25.20
2019-05-07T08:19:32.968Z,24.90
2019-05-07T08:22:02.780Z,24.50
2019-05-07T08:24:32.170Z,23.90
2019-05-07T08:27:02.293Z,23.50
2019-05-07T08:29:32.515Z,22.80
2019-05-07T08:32:06.990Z,23.00
2019-05-07T08:34:37.042Z,23.20
2019-05-07T08:37:05.466Z,23.20
2019-05-07T08:39:33.886Z,23.60
2019-05-07T08:42:02.312Z,23.10
2019-05-07T08:44:38.289Z,23.40
2019-05-07T08:47:14.562Z,23.40
2019-05-07T08:49:43.558Z,23.50
2019-05-07T08:52:12.197Z,21.90
2019-05-07T08:54:42.645Z,21.80
2019-05-07T08:57:12.155Z,22.10
2019-05-07T08:59:43.750Z,21.90
2019-05-07T09:02:12.661Z,20.10
2019-05-07T09:04:41.833Z,16.40
2019-05-07T09:07:12.786Z,15.90
2019-05-07T09:09:42.669Z,17.50
2019-05-07T09:12:12.384Z,17.80
2019-05-07T09:14:42.554Z,17.20
2019-05-07T09:17:12.725Z,17.60
2019-05-07T09:19:50.658Z,17.50
2019-05-07T09:22:12.723Z,17.90
2019-05-07T09:24:42.444Z,18.50
2019-05-07T09:27:22.392Z,18.10
2019-05-07T09:29:52.523Z,16.80
2019-05-07T09:32:34.866Z,16.10
2019-05-07T09:35:05.674Z,16.70
2019-05-07T09:37:34.098Z,16.70
2019-05-07T09:40:02.955Z,17.30
2019-05-07T09:42:33.314Z,16.70
2019-05-07T09:45:02.105Z,16.20
2019-05-07T09:47:32.488Z,15.30
2019-05-07T09:50:05.438Z,15.60
2019-05-07T09:52:32.100Z,15.70
2019-05-07T09:55:11.069Z,16.80
2019-05-07T09:57:32.505Z,16.70
2019-05-07T10:00:02.219Z,16.70
2019-05-07T10:02:32.079Z,16.60
2019-05-07T10:05:02.382Z,17.10
2019-05-07T10:07:32.424Z,17.20
2019-05-07T10:10:03.125Z,17.60
2019-05-07T10:12:49.360Z,17.80
2019-05-07T10:15:17.843Z,17.80
2019-05-07T10:17:47.957Z,17.80
2019-05-07T10:20:22.398Z,17.70
2019-05-07T10:22:48.699Z,17.10
2019-05-07T10:25:17.261Z,17.70
2019-05-07T10:27:45.806Z,16.60
2019-05-07T10:30:14.428Z,17.40
2019-05-07T10:32:42.911Z,16.40
2019-05-07T10:35:12.743Z,16.30
2019-05-07T10:37:42.259Z,16.40
2019-05-07T10:40:12.532Z,16.70
2019-05-07T10:42:43.079Z,16.90
2019-05-07T10:45:26.034Z,15.80
2019-05-07T10:47:58.804Z,16.20
2019-05-07T10:50:37.939Z,16.20
2019-05-07T10:52:59.005Z,16.30
2019-05-07T10:55:27.434Z,16.00
2019-05-07T10:57:55.878Z,16.20
2019-05-07T11:00:26.449Z,15.80
2019-05-07T11:02:55.186Z,16.70
2019-05-07T11:05:23.752Z,17.00
2019-05-07T11:07:53.918Z,17.10
2019-05-07T11:10:22.837Z,17.40
2019-05-07T11:12:52.091Z,18.00
2019-05-07T11:15:22.085Z,16.90
2019-05-07T11:17:58.349Z,17.70
2019-05-07T11:20:26.789Z,17.50
2019-05-07T11:22:55.217Z,17.70
2019-05-07T11:25:23.645Z,18.10
2019-05-07T11:27:52.495Z,18.50
2019-05-07T11:30:22.828Z,19.50
2019-05-07T11:32:52.248Z,18.70
2019-05-07T11:35:23.053Z,19.50
2019-05-07T11:37:52.037Z,19.20
2019-05-07T11:40:22.842Z,19.20
2019-05-07T11:42:53.406Z,19.30
2019-05-07T11:45:23.977Z,19.30
2019-05-07T11:47:52.403Z,20.00
2019-05-07T11:50:22.664Z,19.20
2019-05-07T11:52:58.732Z,18.60
2019-05-07T11:55:27.154Z,19.60
2019-05-07T11:57:55.582Z,20.00
2019-05-07T12:00:26.235Z,19.50
2019-05-07T12:02:54.671Z,19.00
2019-05-07T12:05:23.094Z,20.00
2019-05-07T12:07:51.551Z,19.00
2019-05-07T12:10:22.174Z,19.40
2019-05-07T12:12:52.008Z,19.60
2019-05-07T12:15:21.705Z,18.90
2019-05-07T12:17:52.160Z,20.20
2019-05-07T12:20:21.865Z,18.00
2019-05-07T12:22:52.200Z,18.70
2019-05-07T12:25:21.406Z,18.40
2019-05-07T12:27:51.778Z,18.60
2019-05-07T12:30:26.416Z,19.30
2019-05-07T12:32:59.502Z,19.00
2019-05-07T12:35:28.100Z,19.20
2019-05-07T12:37:56.509Z,18.80
2019-05-07T12:40:25.000Z,18.60
2019-05-07T12:42:53.494Z,18.00
2019-05-07T12:45:22.885Z,18.20
2019-05-07T12:47:52.926Z,17.10
2019-05-07T12:50:21.978Z,16.70
2019-05-07T12:52:57.889Z,17.10
2019-05-07T12:55:40.085Z,16.80
2019-05-07T12:58:08.610Z,16.70
2019-05-07T13:00:52.018Z,16.50
2019-05-07T13:03:28.534Z,17.70
2019-05-07T13:05:56.973Z,16.80
2019-05-07T13:08:25.466Z,16.80
2019-05-07T13:10:53.929Z,16.90
2019-05-07T13:13:22.352Z,16.60
2019-05-07T13:15:51.786Z,16.60
2019-05-07T13:18:22.488Z,16.30
2019-05-07T13:20:51.969Z,16.40
2019-05-07T13:23:22.520Z,16.50
2019-05-07T13:25:52.234Z,15.80
2019-05-07T13:28:20.855Z,16.00
2019-05-07T13:30:49.262Z,16.70
2019-05-07T13:33:18.517Z,15.70
2019-05-07T13:35:47.833Z,15.70
2019-05-07T13:38:21.187Z,17.70
2019-05-07T13:41:08.041Z,16.80
2019-05-07T13:43:38.254Z,17.20
2019-05-07T13:46:08.397Z,17.50
2019-05-07T13:48:38.848Z,17.30
2019-05-07T13:51:07.310Z,17.00
2019-05-07T13:53:35.720Z,16.70
2019-05-07T13:56:04.458Z,16.30
2019-05-07T13:58:33.090Z,16.20
2019-05-07T14:01:12.169Z,15.80
2019-05-07T14:03:40.807Z,15.60
2019-05-07T14:08:39.942Z,15.30
2019-05-07T14:11:08.532Z,15.90
2019-05-07T14:13:37.954Z,16.20
2019-05-07T14:16:07.552Z,16.40
2019-05-07T14:18:37.997Z,16.20
2019-05-07T14:21:07.266Z,15.90
2019-05-07T14:23:36.471Z,16.20
2019-05-07T14:26:05.168Z,15.50
2019-05-07T14:28:33.657Z,15.60
2019-05-07T14:31:02.957Z,15.70
2019-05-07T14:33:48.001Z,16.10
2019-05-07T14:36:26.975Z,16.40
2019-05-07T14:38:55.491Z,17.00
2019-05-07T14:41:25.754Z,16.80
2019-05-07T14:44:02.391Z,16.80
2019-05-07T14:46:43.633Z,16.80
2019-05-07T14:49:02.788Z,16.90
2019-05-07T14:51:32.610Z,17.00
2019-05-07T14:54:01.802Z,16.60
2019-05-07T14:56:32.274Z,16.80
2019-05-07T14:59:02.322Z,16.70
2019-05-07T15:01:31.194Z,16.80
2019-05-07T15:03:59.738Z,17.00
2019-05-07T15:06:28.397Z,16.90
2019-05-07T15:08:57.053Z,16.90
2019-05-07T15:11:25.612Z,16.60
2019-05-07T15:13:54.036Z,16.50
2019-05-07T15:16:22.792Z,16.50
2019-05-07T15:18:55.483Z,16.60
2019-05-07T15:21:24.380Z,16.80
2019-05-07T15:23:55.017Z,17.80
2019-05-07T15:26:24.076Z,16.80
2019-05-07T15:28:54.378Z,17.60
2019-05-07T15:31:36.412Z,17.40
2019-05-07T15:34:04.958Z,17.10
2019-05-07T15:36:33.399Z,17.90
2019-05-07T15:39:02.909Z,16.80
2019-05-07T15:41:32.099Z,17.10
2019-05-07T15:44:02.700Z,17.70
2019-05-07T15:46:32.232Z,18.10
2019-05-07T15:49:01.780Z,18.10
2019-05-07T15:51:30.375Z,17.90
2019-05-07T15:54:00.022Z,18.00
2019-05-07T15:56:28.478Z,18.00
2019-05-07T15:58:56.888Z,18.50
2019-05-07T16:01:25.354Z,18.20
2019-05-07T16:03:54.974Z,18.40
2019-05-07T16:06:23.670Z,18.40
2019-05-07T16:08:53.729Z,18.40
2019-05-07T16:11:23.281Z,18.40
2019-05-07T16:14:05.660Z,18.50
2019-05-07T16:16:35.919Z,18.70
2019-05-07T16:19:12.629Z,18.00
2019-05-07T16:21:42.558Z,19.00
2019-05-07T16:24:12.104Z,18.10
2019-05-07T16:26:41.841Z,18.30
2019-05-07T16:29:12.934Z,18.20
2019-05-07T16:31:40.684Z,18.80
2019-05-07T16:34:09.269Z,18.60
2019-05-07T16:36:37.798Z,18.30
2019-05-07T16:39:07.644Z,18.90
2019-05-07T16:41:36.193Z,18.60
2019-05-07T16:44:05.440Z,18.20
2019-05-07T16:46:33.892Z,18.80
2019-05-07T16:49:02.457Z,19.00
2019-05-07T16:51:33.034Z,18.40
2019-05-07T16:54:03.209Z,19.10
2019-05-07T16:56:33.342Z,19.40
2019-05-07T16:59:07.671Z,18.90
2019-05-07T17:01:36.268Z,18.90
2019-05-07T17:04:05.733Z,18.20
2019-05-07T17:06:34.229Z,18.80
2019-05-07T17:09:07.180Z,18.80
2019-05-07T17:11:35.732Z,18.50
2019-05-07T17:14:04.390Z,18.20
2019-05-07T17:16:32.913Z,18.20
2019-05-07T17:19:03.079Z,18.60
2019-05-07T17:21:32.477Z,18.50
2019-05-07T17:24:02.580Z,19.10
2019-05-07T17:26:31.177Z,18.70
2019-05-07T17:28:59.806Z,18.30
2019-05-07T17:31:28.246Z,18.60
2019-05-07T17:33:56.713Z,18.80
2019-05-07T17:36:25.142Z,18.80
2019-05-07T17:38:53.598Z,18.90
2019-05-07T17:41:26.768Z,19.10
2019-05-07T17:43:52.329Z,19.30
2019-05-07T17:46:21.756Z,18.80
2019-05-07T17:48:52.229Z,18.60
2019-05-07T17:51:22.297Z,18.70
2019-05-07T17:53:59.777Z,18.70
2019-05-07T17:56:22.331Z,18.80
2019-05-07T17:58:52.211Z,18.90
2019-05-07T18:01:22.499Z,19.50
2019-05-07T18:03:52.029Z,20.50
2019-05-07T18:06:20.670Z,20.90
2019-05-07T18:08:49.222Z,21.20
2019-05-07T18:11:21.138Z,21.40
2019-05-07T18:13:48.081Z,22.30
2019-05-07T18:16:22.264Z,22.70
2019-05-07T18:18:52.019Z,23.20
2019-05-07T18:21:22.006Z,23.70
2019-05-07T18:23:51.740Z,23.90
2019-05-07T18:26:28.051Z,24.00
2019-05-07T18:28:52.213Z,24.70
2019-05-07T18:31:22.504Z,24.80
2019-05-07T18:33:55.789Z,24.80
2019-05-07T18:36:24.285Z,24.90
2019-05-07T18:38:52.907Z,25.10
2019-05-07T18:41:22.314Z,25.10
2019-05-07T18:43:54.154Z,25.10
2019-05-07T18:46:22.153Z,25.40
2019-05-07T18:48:51.809Z,25.40
2019-05-07T18:51:20.783Z,25.70
2019-05-07T18:53:49.202Z,25.80
2019-05-07T18:56:17.842Z,25.90
2019-05-07T18:58:46.252Z,25.60
2019-05-07T19:01:15.933Z,26.00
2019-05-07T19:03:44.532Z,26.10
2019-05-07T19:06:13.623Z,26.40
2019-05-07T19:08:42.344Z,26.40
2019-05-07T19:11:12.256Z,26.70
2019-05-07T19:13:42.020Z,26.70
2019-05-07T19:16:12.432Z,26.90
2019-05-07T19:18:42.991Z,27.10
2019-05-07T19:21:11.180Z,27.40
2019-05-07T19:23:39.689Z,27.10
2019-05-07T19:26:08.264Z,27.30
2019-05-07T19:28:36.752Z,27.50
2019-05-07T19:31:05.226Z,27.60
2019-05-07T19:33:33.642Z,27.90
2019-05-07T19:36:02.119Z,28.00
2019-05-07T19:38:32.372Z,28.10
2019-05-07T19:41:02.206Z,28.20
2019-05-07T19:43:32.582Z,28.30
2019-05-07T19:46:02.852Z,28.30
2019-05-07T19:48:32.342Z,28.30
2019-05-07T19:51:02.872Z,28.30
2019-05-07T19:53:32.707Z,28.40
2019-05-07T19:56:15.418Z,28.60
2019-05-07T19:58:43.915Z,28.70
2019-05-07T20:01:14.061Z,28.70
2019-05-07T20:03:44.361Z,28.70
2019-05-07T20:06:13.083Z,29.00
2019-05-07T20:08:43.619Z,29.00
2019-05-07T20:11:25.470Z,29.10
2019-05-07T20:13:53.910Z,29.10
2019-05-07T20:16:23.204Z,29.50
2019-05-07T20:18:52.521Z,29.70
2019-05-07T20:21:22.889Z,29.70
2019-05-07T20:23:53.742Z,29.80
2019-05-07T20:26:23.073Z,30.00
2019-05-07T20:28:52.730Z,30.30
2019-05-07T20:31:22.533Z,30.40
2019-05-07T20:33:53.043Z,30.30
2019-05-07T20:36:22.590Z,30.30
2019-05-07T20:38:52.191Z,30.30
2019-05-07T20:41:23.024Z,30.60
2019-05-07T20:43:52.344Z,30.40
2019-05-07T20:46:20.982Z,30.80
2019-05-07T20:48:49.415Z,30.30
2019-05-07T20:51:17.841Z,30.30
2019-05-07T20:54:02.885Z,30.40
2019-05-07T20:56:35.550Z,30.70
2019-05-07T20:59:04.393Z,31.10
2019-05-07T21:01:33.168Z,31.20
2019-05-07T21:04:02.157Z,31.20
2019-05-07T21:06:32.336Z,31.30
2019-05-07T21:09:01.275Z,30.90
2019-05-07T21:11:32.019Z,31.20
2019-05-07T21:13:59.890Z,31.70
2019-05-07T21:16:28.433Z,32.00
2019-05-07T21:18:56.867Z,31.80
2019-05-07T21:21:25.289Z,32.00
2019-05-07T21:23:53.741Z,32.00
2019-05-07T21:26:22.615Z,32.20
2019-05-07T21:28:52.809Z,32.70
2019-05-07T21:31:22.823Z,32.90
2019-05-07T21:33:52.322Z,33.30
2019-05-07T21:36:22.871Z,34.40
2019-05-07T21:38:51.870Z,34.60
2019-05-07T21:41:22.752Z,34.70
2019-05-07T21:43:52.640Z,34.80
2019-05-07T21:46:22.188Z,34.90
2019-05-07T21:48:51.816Z,35.20
2019-05-07T21:51:22.825Z,35.60
2019-05-07T21:53:53.798Z,36.20
2019-05-07T21:56:26.906Z,36.20
2019-05-07T21:58:57.334Z,37.30
2019-05-07T22:01:27.482Z,37.60
2019-05-07T22:03:57.883Z,38.00
2019-05-07T22:06:26.445Z,37.40
2019-05-07T22:08:55.001Z,38.80
2019-05-07T22:11:23.423Z,39.10
2019-05-07T22:13:54.442Z,39.20
2019-05-07T22:16:22.334Z,39.50
2019-05-07T22:18:52.277Z,39.30
2019-05-07T22:21:21.630Z,39.40
2019-05-07T22:23:52.023Z,39.30
2019-05-07T22:26:23.856Z,39.80
2019-05-07T22:28:53.817Z,40.30
2019-05-07T22:31:25.337Z,39.80
2019-05-07T22:33:59.345Z,39.40
2019-05-07T22:36:27.948Z,39.70
2019-05-07T22:38:56.353Z,39.70
2019-05-07T22:41:24.846Z,39.40
2019-05-07T22:43:53.252Z,39.90
2019-05-07T22:46:22.339Z,39.90
2019-05-07T22:48:50.966Z,40.20
2019-05-07T22:51:19.401Z,41.60
2019-05-07T22:53:47.792Z,40.90
2019-05-07T22:56:16.364Z,41.00
2019-05-07T22:58:49.412Z,41.20
2019-05-07T23:01:19.109Z,42.30
2019-05-07T23:03:47.518Z,41.90
2019-05-07T23:06:15.931Z,41.90
2019-05-07T23:08:44.654Z,41.80
2019-05-07T23:11:13.078Z,42.40
2019-05-07T23:13:42.739Z,42.50
2019-05-07T23:16:12.576Z,42.70
2019-05-07T23:18:42.869Z,42.80
2019-05-07T23:21:11.317Z,42.80
2019-05-07T23:23:42.006Z,43.60
2019-05-07T23:26:12.211Z,44.20
2019-05-07T23:28:41.889Z,44.30
2019-05-07T23:31:12.118Z,45.20
2019-05-07T23:33:40.293Z,44.70
2019-05-07T23:36:08.697Z,44.30
2019-05-07T23:38:37.122Z,44.00
2019-05-07T23:41:13.165Z,44.60
2019-05-07T23:43:42.373Z,44.40
2019-05-07T23:46:12.826Z,44.30
2019-05-07T23:48:42.725Z,43.90
2019-05-07T23:51:12.620Z,44.10
2019-05-07T23:53:44.143Z,43.90
2019-05-07T23:56:13.084Z,43.50
2019-05-07T23:58:42.035Z,43.20
